Budapest Bridge — VRIZ5 — position and weather

sailwx.info

Track history (hours):
 
Tides and Currents Weather Stations Pressure Air Temp Water Temp Dewpoint Dewpoint Depression Visibility Wind Speed Wind Dir Waves Ship Positions

Budapest Bridge

Last reported at 2017-Jul-21 23:27 UTC. Time now 2017-Jul-22 00:28 UTC.
Position N 39°45' W 027°59'.

Length 268 m; draft 9.5 m.

Type: Ship (hazmat cat A). MMSI: 477434200.

Date/timePositionNaut miles runAvg speedWind from/ knotsBaromVisibWave heightAir tempDewpointWater temp
2017-Jul-21 23:27N 39°45' W 027°59'916.5
2017-Jul-21 22:53N 39°47' W 028°11'2216.8
2017-Jul-21 21:36N 39°50' W 028°38'216.1
2017-Jul-21 21:31N 39°50' W 028°40'816.5
2017-Jul-21 21:00N 39°52' W 028°51'816.5
2017-Jul-21 20:30N 39°53' W 029°02'816.6
2017-Jul-21 20:00N 39°54' W 029°12'816.6
2017-Jul-21 19:30N 39°56' W 029°23'916.8
2017-Jul-21 18:59N 39°57' W 029°34'816.3
2017-Jul-21 18:30N 39°57' W 029°45'816.2
2017-Jul-21 18:00N 39°59' W 029°55'816.7
2017-Jul-21 17:30N 40°01' W 030°06'917.0
2017-Jul-21 16:59N 40°02' W 030°17'916.9
2017-Jul-21 16:29N 40°03' W 030°28'917.1
2017-Jul-21 15:56N 40°04' W 030°40'817.1
2017-Jul-21 15:28N 40°04' W 030°51'816.9
2017-Jul-21 15:00N 40°04' W 031°01'1017.1
2017-Jul-21 14:26N 40°05' W 031°14'817.0
2017-Jul-21 13:59N 40°05' W 031°23'817.2
2017-Jul-21 13:31N 40°05' W 031°34'917.0
2017-Jul-21 13:00N 40°06' W 031°45'816.8
2017-Jul-21 12:30N 40°07' W 031°56'916.7
2017-Jul-21 11:58N 40°07' W 032°08'1516.3
2017-Jul-21 11:03N 40°08' W 032°27'222.2
2017-Jul-21 10:57N 40°08' W 032°31'11718.9
2017-Jul-21 04:45N 40°13' W 035°04'3716.6
2017-Jul-21 02:31N 40°14' W 035°52'018.7
2017-Jul-21 02:30N 40°14' W 035°52'  
2017-Jul-16 06:30N 33°42' W 075°14'6513.8
2017-Jul-16 01:49N 33°16' W 076°26'15913.1
2017-Jul-15 13:41N 32°16' W 079°20'612.8
2017-Jul-15 13:11N 32°13' W 079°27'312.7
2017-Jul-15 12:56N 32°12' W 079°30'512.6
2017-Jul-15 12:30N 32°10' W 079°36'612.6
2017-Jul-15 12:00N 32°08' W 079°43'612.7
2017-Jul-15 11:30N 32°05' W 079°50'712.8
2017-Jul-15 10:59N 32°03' W 079°57'612.9
2017-Jul-15 10:30N 32°01' W 080°04'713.2
2017-Jul-15 09:56N 32°00' W 080°13'613.4
2017-Jul-15 09:30N 31°60' W 080°20'713.7
2017-Jul-15 09:00N 31°59' W 080°28'713.9
2017-Jul-15 08:30N 31°57' W 080°36'612.3
2017-Jul-15 08:00N 31°58' W 080°43'714.1
2017-Jul-15 07:30N 32°02' W 080°50'713.1
2017-Jul-15 07:00N 32°04' W 080°57'5 9.7
2017-Jul-15 06:30N 32°05' W 081°03'3 6.0
2017-Jul-15 06:00N 32°06' W 081°06'2 4.5
2017-Jul-15 05:30N 32°07' W 081°08'0 0.9
2017-Jul-15 04:59N 32°08' W 081°08'0 0.0
2017-Jul-15 04:29N 32°08' W 081°08'0 0.0
2017-Jul-15 03:59N 32°08' W 081°08'0 0.0
2017-Jul-15 03:29N 32°08' W 081°08'0 0.0
2017-Jul-15 02:59N 32°08' W 081°08'0 0.0
2017-Jul-15 02:29N 32°08' W 081°08'0 0.0
2017-Jul-15 01:53N 32°08' W 081°08'0 0.0
2017-Jul-15 01:29N 32°08' W 081°08'0 0.0
2017-Jul-15 00:56N 32°08' W 081°08'0 0.0
2017-Jul-15 00:26N 32°08' W 081°08'0 0.0
2017-Jul-14 23:44N 32°08' W 081°08'0 0.0
2017-Jul-14 23:26N 32°08' W 081°08'0 0.0
2017-Jul-14 22:50N 32°08' W 081°08'0 0.0
2017-Jul-14 22:26N 32°08' W 081°08'0 0.0
2017-Jul-14 21:56N 32°08' W 081°08'0 0.0
2017-Jul-14 21:26N 32°08' W 081°08'0 0.0
2017-Jul-14 20:56N 32°08' W 081°08'0 0.0
2017-Jul-14 20:26N 32°08' W 081°08'0 0.0
2017-Jul-14 19:56N 32°08' W 081°08'0 0.0
2017-Jul-14 19:20N 32°08' W 081°08'0 0.0
2017-Jul-14 18:50N 32°08' W 081°08'0 0.0
2017-Jul-14 18:26N 32°08' W 081°08'0 0.0
2017-Jul-14 17:44N 32°08' W 081°08'0 0.0
2017-Jul-14 17:26N 32°08' W 081°08'0 0.0
2017-Jul-14 16:56N 32°08' W 081°08'0 0.0
2017-Jul-14 16:26N 32°08' W 081°08'0 0.0
2017-Jul-14 15:56N 32°08' W 081°08'0 0.0
2017-Jul-14 15:26N 32°08' W 081°08'0 0.0
2017-Jul-14 14:44N 32°08' W 081°08'0 0.0
2017-Jul-14 14:26N 32°08' W 081°08'0 0.0
2017-Jul-14 13:56N 32°08' W 081°08'0 0.0
2017-Jul-14 13:26N 32°08' W 081°08'0 0.0
2017-Jul-14 12:56N 32°08' W 081°08'0 0.0
2017-Jul-14 12:26N 32°08' W 081°08'0 0.0
2017-Jul-14 11:56N 32°08' W 081°08'0 0.0
2017-Jul-14 11:30N 32°08' W 081°08'0 0.9
2017-Jul-14 10:59N 32°07' W 081°08'2 4.9
2017-Jul-14 10:29N 32°06' W 081°06'2 4.8
2017-Jul-14 10:00N 32°05' W 081°03'3 7.0
2017-Jul-14 09:30N 32°05' W 080°59'610.8
2017-Jul-14 08:59N 32°02' W 080°54'611.4
2017-Jul-14 08:30N 32°01' W 080°48'714.8
2017-Jul-14 08:00N 31°57' W 080°40'713.6
2017-Jul-14 07:30N 31°58' W 080°32'1616.6
2017-Jul-14 06:31N 32°00' W 080°13'216.5
2017-Jul-14 06:23N 32°00' W 080°11'616.5
2017-Jul-14 06:00N 32°00' W 080°03'816.2
2017-Jul-14 05:29N 32°00' W 079°53'2216.0
2017-Jul-14 04:05N 32°10' W 079°29'316.3
2017-Jul-14 03:54N 32°11' W 079°26'23416.5
2017-Jul-13 13:43N 34°26' W 075°36'417.3
2017-Jul-13 13:30N 34°29' W 075°33'917.3
2017-Jul-13 13:00N 34°35' W 075°27'917.0
2017-Jul-13 12:30N 34°42' W 075°21'816.8
2017-Jul-13 12:00N 34°49' W 075°16'916.8
2017-Jul-13 11:27N 34°57' W 075°09'1116.0
2017-Jul-13 10:45N 35°05' W 075°00'9418.5
2017-Jul-13 05:41N 36°37' W 075°25'1819.7
2017-Jul-13 04:48N 36°47' W 075°43'1019.3
2017-Jul-13 04:18N 36°52' W 075°53'517.9
2017-Jul-13 04:00N 36°56' W 075°58'815.2
2017-Jul-13 03:30N 36°59' W 076°07'917.4
2017-Jul-13 03:00N 36°60' W 076°18'4 8.8
2017-Jul-13 02:31N 36°56' W 076°20'1 1.0
2017-Jul-13 01:58N 36°55' W 076°20'0 0.0
2017-Jul-13 01:28N 36°55' W 076°20'0 0.0
2017-Jul-13 00:58N 36°55' W 076°20'0 0.0
2017-Jul-13 00:28N 36°55' W 076°20'0 0.0
2017-Jul-12 23:58N 36°55' W 076°20'0 0.0
2017-Jul-12 23:28N 36°55' W 076°20'0 0.0
2017-Jul-12 22:58N 36°55' W 076°20'0 0.0
2017-Jul-12 22:25N 36°55' W 076°20'0 0.0
2017-Jul-12 21:58N 36°55' W 076°20'0 0.0
2017-Jul-12 21:28N 36°55' W 076°20'0 0.0
2017-Jul-12 20:58N 36°55' W 076°20'0 0.0
2017-Jul-12 20:28N 36°55' W 076°20'0 0.0
2017-Jul-12 19:22N 36°55' W 076°20'0 0.0
2017-Jul-12 18:55N 36°55' W 076°20'0 0.0
2017-Jul-12 17:49N 36°55' W 076°20'0 0.0
2017-Jul-12 17:22N 36°55' W 076°20'0 0.0
2017-Jul-12 16:52N 36°55' W 076°20'0 0.0
2017-Jul-12 16:28N 36°55' W 076°20'0 0.0
2017-Jul-12 15:58N 36°55' W 076°20'0 0.0
2017-Jul-12 15:28N 36°55' W 076°20'0 0.0
2017-Jul-12 14:52N 36°55' W 076°20'0 0.0
2017-Jul-12 13:58N 36°55' W 076°20'0 0.0
2017-Jul-12 13:28N 36°55' W 076°20'0 0.0
2017-Jul-12 12:58N 36°55' W 076°20'0 0.0
2017-Jul-12 12:28N 36°55' W 076°20'0 0.0
2017-Jul-12 11:52N 36°55' W 076°20'0 0.0
2017-Jul-12 11:25N 36°55' W 076°20'0 0.0
2017-Jul-12 10:58N 36°55' W 076°20'0 0.0
2017-Jul-12 10:28N 36°55' W 076°20'0 0.0
2017-Jul-12 09:55N 36°55' W 076°20'0 0.0
2017-Jul-12 09:28N 36°55' W 076°20'0 0.0
2017-Jul-12 08:58N 36°55' W 076°20'0 1.0
2017-Jul-12 08:31N 36°56' W 076°20'3 5.8
2017-Jul-12 08:00N 36°59' W 076°20'713.7
2017-Jul-12 07:30N 36°60' W 076°11'918.7
2017-Jul-12 07:00N 36°57' W 076°00'511.0
2017-Jul-12 06:30N 36°55' W 075°54'5 9.6
2017-Jul-12 06:00N 36°52' W 075°49'25 8.6
2017-Jul-12 03:08N 37°07' W 075°24'  
Track history (hours):
 
Tides and Currents Weather Stations Pressure Air Temp Water Temp Dewpoint Dewpoint Depression Visibility Wind Speed Wind Dir Waves Ship Positions

Budapest Bridge

Last reported at 2017-Jul-21 23:27 UTC. Time now 2017-Jul-22 00:28 UTC.
Position N 39°45' W 027°59'.

Length 268 m; draft 9.5 m.

Type: Ship (hazmat cat A). MMSI: 477434200.

Date/timePositionNaut miles runAvg speedWind from/ knotsBaromVisibWave heightAir tempDewpointWater temp
2017-Jul-21 23:27N 39°45' W 027°59'916.5
2017-Jul-21 22:53N 39°47' W 028°11'2216.8
2017-Jul-21 21:36N 39°50' W 028°38'216.1
2017-Jul-21 21:31N 39°50' W 028°40'816.5
2017-Jul-21 21:00N 39°52' W 028°51'816.5
2017-Jul-21 20:30N 39°53' W 029°02'816.6
2017-Jul-21 20:00N 39°54' W 029°12'816.6
2017-Jul-21 19:30N 39°56' W 029°23'916.8
2017-Jul-21 18:59N 39°57' W 029°34'816.3
2017-Jul-21 18:30N 39°57' W 029°45'816.2
2017-Jul-21 18:00N 39°59' W 029°55'816.7
2017-Jul-21 17:30N 40°01' W 030°06'917.0
2017-Jul-21 16:59N 40°02' W 030°17'916.9
2017-Jul-21 16:29N 40°03' W 030°28'917.1
2017-Jul-21 15:56N 40°04' W 030°40'817.1
2017-Jul-21 15:28N 40°04' W 030°51'816.9
2017-Jul-21 15:00N 40°04' W 031°01'1017.1
2017-Jul-21 14:26N 40°05' W 031°14'817.0
2017-Jul-21 13:59N 40°05' W 031°23'817.2
2017-Jul-21 13:31N 40°05' W 031°34'917.0
2017-Jul-21 13:00N 40°06' W 031°45'816.8
2017-Jul-21 12:30N 40°07' W 031°56'916.7
2017-Jul-21 11:58N 40°07' W 032°08'1516.3
2017-Jul-21 11:03N 40°08' W 032°27'222.2
2017-Jul-21 10:57N 40°08' W 032°31'11718.9
2017-Jul-21 04:45N 40°13' W 035°04'3716.6
2017-Jul-21 02:31N 40°14' W 035°52'018.7
2017-Jul-21 02:30N 40°14' W 035°52'  
2017-Jul-16 06:30N 33°42' W 075°14'6513.8
2017-Jul-16 01:49N 33°16' W 076°26'15913.1
2017-Jul-15 13:41N 32°16' W 079°20'612.8
2017-Jul-15 13:11N 32°13' W 079°27'312.7
2017-Jul-15 12:56N 32°12' W 079°30'512.6
2017-Jul-15 12:30N 32°10' W 079°36'612.6
2017-Jul-15 12:00N 32°08' W 079°43'612.7
2017-Jul-15 11:30N 32°05' W 079°50'712.8
2017-Jul-15 10:59N 32°03' W 079°57'612.9
2017-Jul-15 10:30N 32°01' W 080°04'713.2
2017-Jul-15 09:56N 32°00' W 080°13'613.4
2017-Jul-15 09:30N 31°60' W 080°20'713.7
2017-Jul-15 09:00N 31°59' W 080°28'713.9
2017-Jul-15 08:30N 31°57' W 080°36'612.3
2017-Jul-15 08:00N 31°58' W 080°43'714.1
2017-Jul-15 07:30N 32°02' W 080°50'713.1
2017-Jul-15 07:00N 32°04' W 080°57'5 9.7
2017-Jul-15 06:30N 32°05' W 081°03'3 6.0
2017-Jul-15 06:00N 32°06' W 081°06'2 4.5
2017-Jul-15 05:30N 32°07' W 081°08'0 0.9
2017-Jul-15 04:59N 32°08' W 081°08'0 0.0
2017-Jul-15 04:29N 32°08' W 081°08'0 0.0
2017-Jul-15 03:59N 32°08' W 081°08'0 0.0
2017-Jul-15 03:29N 32°08' W 081°08'0 0.0
2017-Jul-15 02:59N 32°08' W 081°08'0 0.0
2017-Jul-15 02:29N 32°08' W 081°08'0 0.0
2017-Jul-15 01:53N 32°08' W 081°08'0 0.0
2017-Jul-15 01:29N 32°08' W 081°08'0 0.0
2017-Jul-15 00:56N 32°08' W 081°08'0 0.0
2017-Jul-15 00:26N 32°08' W 081°08'0 0.0
2017-Jul-14 23:44N 32°08' W 081°08'0 0.0
2017-Jul-14 23:26N 32°08' W 081°08'0 0.0
2017-Jul-14 22:50N 32°08' W 081°08'0 0.0
2017-Jul-14 22:26N 32°08' W 081°08'0 0.0
2017-Jul-14 21:56N 32°08' W 081°08'0 0.0
2017-Jul-14 21:26N 32°08' W 081°08'0 0.0
2017-Jul-14 20:56N 32°08' W 081°08'0 0.0
2017-Jul-14 20:26N 32°08' W 081°08'0 0.0
2017-Jul-14 19:56N 32°08' W 081°08'0 0.0
2017-Jul-14 19:20N 32°08' W 081°08'0 0.0
2017-Jul-14 18:50N 32°08' W 081°08'0 0.0
2017-Jul-14 18:26N 32°08' W 081°08'0 0.0
2017-Jul-14 17:44N 32°08' W 081°08'0 0.0
2017-Jul-14 17:26N 32°08' W 081°08'0 0.0
2017-Jul-14 16:56N 32°08' W 081°08'0 0.0
2017-Jul-14 16:26N 32°08' W 081°08'0 0.0
2017-Jul-14 15:56N 32°08' W 081°08'0 0.0
2017-Jul-14 15:26N 32°08' W 081°08'0 0.0
2017-Jul-14 14:44N 32°08' W 081°08'0 0.0
2017-Jul-14 14:26N 32°08' W 081°08'0 0.0
2017-Jul-14 13:56N 32°08' W 081°08'0 0.0
2017-Jul-14 13:26N 32°08' W 081°08'0 0.0
2017-Jul-14 12:56N 32°08' W 081°08'0 0.0
2017-Jul-14 12:26N 32°08' W 081°08'0 0.0
2017-Jul-14 11:56N 32°08' W 081°08'0 0.0
2017-Jul-14 11:30N 32°08' W 081°08'0 0.9
2017-Jul-14 10:59N 32°07' W 081°08'2 4.9
2017-Jul-14 10:29N 32°06' W 081°06'2 4.8
2017-Jul-14 10:00N 32°05' W 081°03'3 7.0
2017-Jul-14 09:30N 32°05' W 080°59'610.8
2017-Jul-14 08:59N 32°02' W 080°54'611.4
2017-Jul-14 08:30N 32°01' W 080°48'714.8
2017-Jul-14 08:00N 31°57' W 080°40'713.6
2017-Jul-14 07:30N 31°58' W 080°32'1616.6
2017-Jul-14 06:31N 32°00' W 080°13'216.5
2017-Jul-14 06:23N 32°00' W 080°11'616.5
2017-Jul-14 06:00N 32°00' W 080°03'816.2
2017-Jul-14 05:29N 32°00' W 079°53'2216.0
2017-Jul-14 04:05N 32°10' W 079°29'316.3
2017-Jul-14 03:54N 32°11' W 079°26'23416.5
2017-Jul-13 13:43N 34°26' W 075°36'417.3
2017-Jul-13 13:30N 34°29' W 075°33'917.3
2017-Jul-13 13:00N 34°35' W 075°27'917.0
2017-Jul-13 12:30N 34°42' W 075°21'816.8
2017-Jul-13 12:00N 34°49' W 075°16'916.8
2017-Jul-13 11:27N 34°57' W 075°09'1116.0
2017-Jul-13 10:45N 35°05' W 075°00'9418.5
2017-Jul-13 05:41N 36°37' W 075°25'1819.7
2017-Jul-13 04:48N 36°47' W 075°43'1019.3
2017-Jul-13 04:18N 36°52' W 075°53'517.9
2017-Jul-13 04:00N 36°56' W 075°58'815.2
2017-Jul-13 03:30N 36°59' W 076°07'917.4
2017-Jul-13 03:00N 36°60' W 076°18'4 8.8
2017-Jul-13 02:31N 36°56' W 076°20'1 1.0
2017-Jul-13 01:58N 36°55' W 076°20'0 0.0
2017-Jul-13 01:28N 36°55' W 076°20'0 0.0
2017-Jul-13 00:58N 36°55' W 076°20'0 0.0
2017-Jul-13 00:28N 36°55' W 076°20'0 0.0
2017-Jul-12 23:58N 36°55' W 076°20'0 0.0
2017-Jul-12 23:28N 36°55' W 076°20'0 0.0
2017-Jul-12 22:58N 36°55' W 076°20'0 0.0
2017-Jul-12 22:25N 36°55' W 076°20'0 0.0
2017-Jul-12 21:58N 36°55' W 076°20'0 0.0
2017-Jul-12 21:28N 36°55' W 076°20'0 0.0
2017-Jul-12 20:58N 36°55' W 076°20'0 0.0
2017-Jul-12 20:28N 36°55' W 076°20'0 0.0
2017-Jul-12 19:22N 36°55' W 076°20'0 0.0
2017-Jul-12 18:55N 36°55' W 076°20'0 0.0
2017-Jul-12 17:49N 36°55' W 076°20'0 0.0
2017-Jul-12 17:22N 36°55' W 076°20'0 0.0
2017-Jul-12 16:52N 36°55' W 076°20'0 0.0
2017-Jul-12 16:28N 36°55' W 076°20'0 0.0
2017-Jul-12 15:58N 36°55' W 076°20'0 0.0
2017-Jul-12 15:28N 36°55' W 076°20'0 0.0
2017-Jul-12 14:52N 36°55' W 076°20'0 0.0
2017-Jul-12 13:58N 36°55' W 076°20'0 0.0
2017-Jul-12 13:28N 36°55' W 076°20'0 0.0
2017-Jul-12 12:58N 36°55' W 076°20'0 0.0
2017-Jul-12 12:28N 36°55' W 076°20'0 0.0
2017-Jul-12 11:52N 36°55' W 076°20'0 0.0
2017-Jul-12 11:25N 36°55' W 076°20'0 0.0
2017-Jul-12 10:58N 36°55' W 076°20'0 0.0
2017-Jul-12 10:28N 36°55' W 076°20'0 0.0
2017-Jul-12 09:55N 36°55' W 076°20'0 0.0
2017-Jul-12 09:28N 36°55' W 076°20'0 0.0
2017-Jul-12 08:58N 36°55' W 076°20'0 1.0
2017-Jul-12 08:31N 36°56' W 076°20'3 5.8
2017-Jul-12 08:00N 36°59' W 076°20'713.7
2017-Jul-12 07:30N 36°60' W 076°11'918.7
2017-Jul-12 07:00N 36°57' W 076°00'511.0
2017-Jul-12 06:30N 36°55' W 075°54'5 9.6
2017-Jul-12 06:00N 36°52' W 075°49'25 8.6
2017-Jul-12 03:08N 37°07' W 075°24'  

Dump ship's entire track history